Time;durP1;ratioP1;P1;durP2;ratioP2;P2;SDS_P1;SDS_P2;PMS_P1;PMS_P2;Temp;Humidity;BMP_temperature;BMP_pressure;BME280_temperature;BME280_humidity;BME280_pressure;Samples;Min_cycle;Max_cycle;Signal;HPM_P1;HPM_P2
2023/11/06 00:00:26;;;;;;;1.75;0.57;;;20.70;46.20;;;;;;5066593;28;20017;-55
2023/11/06 00:02:53;;;;;;;1.23;0.50;;;20.70;46.20;;;;;;5069894;28;20091;-58
2023/11/06 00:05:19;;;;;;;1.00;0.60;;;20.70;46.30;;;;;;5071144;28;20028;-55
2023/11/06 00:07:45;;;;;;;1.17;0.50;;;20.70;46.30;;;;;;5068318;28;20090;-58
2023/11/06 00:10:11;;;;;;;0.80;0.40;;;20.70;46.30;;;;;;5068054;28;20463;-58
2023/11/06 00:12:38;;;;;;;1.02;0.57;;;20.70;46.30;;;;;;5070042;28;20143;-57
2023/11/06 00:15:05;;;;;;;1.50;0.50;;;20.60;46.30;;;;;;5067160;28;20035;-57
2023/11/06 00:17:30;;;;;;;1.58;0.68;;;20.70;46.40;;;;;;5076501;28;20031;-57
2023/11/06 00:19:56;;;;;;;1.67;0.60;;;20.60;46.30;;;;;;5072328;28;20405;-58
2023/11/06 00:22:22;;;;;;;0.85;0.43;;;20.70;46.40;;;;;;5068671;28;20021;-56
2023/11/06 00:24:48;;;;;;;2.38;0.80;;;20.60;46.40;;;;;;5055355;28;20040;-60
2023/11/06 00:27:14;;;;;;;1.35;0.50;;;20.70;46.40;;;;;;5072621;28;20124;-57
2023/11/06 00:29:42;;;;;;;1.98;0.63;;;20.70;46.50;;;;;;5067739;28;20481;-58
2023/11/06 00:32:07;;;;;;;2.50;0.90;;;20.60;46.40;;;;;;5046139;28;20058;-58
2023/11/06 00:34:33;;;;;;;2.13;0.60;;;20.60;46.50;;;;;;5044009;28;20045;-58
2023/11/06 00:36:59;;;;;;;0.85;0.55;;;20.60;46.50;;;;;;5068552;28;20489;-59
2023/11/06 00:39:25;;;;;;;1.55;0.80;;;20.60;46.50;;;;;;5063512;28;20020;-59
2023/11/06 00:41:51;;;;;;;0.68;0.35;;;20.60;46.50;;;;;;5070906;28;20029;-57
2023/11/06 00:44:17;;;;;;;1.08;0.50;;;20.60;46.50;;;;;;5053654;28;20041;-58
2023/11/06 00:46:43;;;;;;;1.58;0.40;;;20.60;46.50;;;;;;5072182;28;20881;-59
2023/11/06 00:49:10;;;;;;;1.15;0.47;;;20.60;46.50;;;;;;5051660;28;20119;-58
2023/11/06 00:51:36;;;;;;;1.13;0.60;;;20.60;46.50;;;;;;5052170;28;20387;-58
2023/11/06 00:54:02;;;;;;;0.50;0.30;;;20.50;46.50;;;;;;5054741;28;20029;-59
2023/11/06 00:56:28;;;;;;;0.98;0.40;;;20.50;46.50;;;;;;5051798;28;20036;-57
2023/11/06 00:58:55;;;;;;;1.25;0.40;;;20.50;46.50;;;;;;5056302;28;20440;-57
2023/11/06 01:01:20;;;;;;;1.00;0.50;;;20.50;46.50;;;;;;5051985;28;20049;-57
2023/11/06 01:03:46;;;;;;;2.63;0.60;;;20.50;46.50;;;;;;5058486;28;20047;-57
2023/11/06 01:06:12;;;;;;;2.33;0.70;;;20.50;46.50;;;;;;5056951;28;20020;-57
2023/11/06 01:08:38;;;;;;;1.23;0.50;;;20.50;46.60;;;;;;5073870;28;20128;-58
2023/11/06 01:11:05;;;;;;;0.77;0.50;;;20.50;46.60;;;;;;5073055;28;20383;-59
2023/11/06 01:13:31;;;;;;;1.35;0.50;;;20.50;46.60;;;;;;5066687;28;20440;-58
2023/11/06 01:15:57;;;;;;;0.50;0.38;;;20.50;46.60;;;;;;5072915;28;20017;-58
2023/11/06 01:18:23;;;;;;;1.38;0.70;;;20.50;46.60;;;;;;5074298;28;20020;-56
2023/11/06 01:20:49;;;;;;;1.80;0.50;;;20.40;46.60;;;;;;5069103;28;20475;-58
2023/11/06 01:23:15;;;;;;;1.48;0.25;;;20.40;46.60;;;;;;5075969;28;20043;-57
2023/11/06 01:25:43;;;;;;;1.17;0.50;;;20.40;46.60;;;;;;5046591;28;20439;-58
2023/11/06 01:28:12;;;;;;;1.20;0.50;;;20.50;46.60;;;;;;5050834;28;20056;-59
2023/11/06 01:30:37;;;;;;;1.42;0.50;;;20.50;46.60;;;;;;5069119;28;20056;-58
2023/11/06 01:33:03;;;;;;;0.70;0.40;;;20.40;46.60;;;;;;5068325;28;20051;-57
2023/11/06 01:35:30;;;;;;;0.98;0.38;;;20.40;46.60;;;;;;5064874;28;20117;-58
2023/11/06 01:38:00;;;;;;;0.50;0.30;;;20.40;46.60;;;;;;5073036;28;20091;-57
2023/11/06 01:40:30;;;;;;;1.60;0.52;;;20.40;46.60;;;;;;5064902;28;20061;-59
2023/11/06 01:42:56;;;;;;;1.52;0.50;;;20.40;46.60;;;;;;5069129;28;20067;-59
2023/11/06 01:45:22;;;;;;;0.90;0.30;;;20.40;46.60;;;;;;5066952;28;20048;-56
2023/11/06 01:47:48;;;;;;;1.25;0.60;;;20.40;46.60;;;;;;5070262;28;20431;-58
2023/11/06 01:50:15;;;;;;;0.88;0.40;;;20.40;46.60;;;;;;5046385;28;20025;-57
2023/11/06 01:52:42;;;;;;;0.55;0.30;;;20.40;46.60;;;;;;5047723;28;20444;-56
2023/11/06 01:55:09;;;;;;;1.35;0.40;;;20.40;46.60;;;;;;5074648;28;20038;-57
2023/11/06 01:57:35;;;;;;;1.45;0.40;;;20.40;46.60;;;;;;5070516;28;20363;-57
2023/11/06 02:00:01;;;;;;;1.15;0.50;;;20.40;46.60;;;;;;5041314;28;20112;-57
2023/11/06 02:02:41;;;;;;;1.00;0.30;;;20.40;46.60;;;;;;5058886;28;20047;-56
2023/11/06 02:05:09;;;;;;;1.13;0.50;;;20.30;47.00;;;;;;5068077;28;20103;-55
2023/11/06 02:07:36;;;;;;;0.90;0.30;;;20.30;46.60;;;;;;5068500;28;20044;-57
2023/11/06 02:10:03;;;;;;;1.15;0.43;;;20.30;46.60;;;;;;5051993;28;20017;-57
2023/11/06 02:12:31;;;;;;;1.58;0.63;;;20.30;46.50;;;;;;5063881;28;20028;-56
2023/11/06 02:14:57;;;;;;;0.52;0.25;;;20.30;46.60;;;;;;5070318;28;20059;-57
2023/11/06 02:17:25;;;;;;;0.70;0.20;;;20.30;46.60;;;;;;5067322;28;20580;-56
2023/11/06 02:19:51;;;;;;;1.17;0.20;;;20.30;46.60;;;;;;5074149;28;20053;-57
2023/11/06 02:22:22;;;;;;;0.80;0.38;;;20.30;46.60;;;;;;5052913;28;20035;-57
2023/11/06 02:24:50;;;;;;;0.43;0.30;;;20.30;46.60;;;;;;5079336;28;20041;-56
2023/11/06 02:27:17;;;;;;;0.40;0.20;;;20.30;46.60;;;;;;5070788;28;20099;-57
2023/11/06 02:29:43;;;;;;;0.73;0.30;;;20.30;46.60;;;;;;5068374;28;20029;-57
2023/11/06 02:32:10;;;;;;;0.50;0.40;;;20.30;46.60;;;;;;5055959;28;20575;-58
2023/11/06 02:34:40;;;;;;;1.30;0.47;;;20.30;46.60;;;;;;5072708;28;20043;-58
2023/11/06 02:37:08;;;;;;;0.73;0.30;;;20.30;46.60;;;;;;5068246;28;20028;-58
2023/11/06 02:39:34;;;;;;;0.70;0.25;;;20.30;46.70;;;;;;5085444;28;20352;-55
2023/11/06 02:42:07;;;;;;;0.30;0.20;;;20.30;46.70;;;;;;5070065;28;20048;-57
2023/11/06 02:44:33;;;;;;;0.77;0.20;;;20.30;46.70;;;;;;5071206;28;20027;-57
2023/11/06 02:46:59;;;;;;;0.85;0.30;;;20.30;46.70;;;;;;5073544;28;20431;-58
2023/11/06 02:49:25;;;;;;;0.85;0.28;;;20.30;46.70;;;;;;5066959;28;20024;-58
2023/11/06 02:51:52;;;;;;;0.68;0.25;;;20.20;46.70;;;;;;5083125;28;20029;-58
2023/11/06 02:54:25;;;;;;;0.73;0.40;;;20.20;46.70;;;;;;5036772;28;20379;-59
2023/11/06 02:56:52;;;;;;;0.30;0.20;;;20.20;46.80;;;;;;5060985;28;20067;-57
2023/11/06 02:59:18;;;;;;;0.88;0.50;;;20.20;46.80;;;;;;5048673;28;20446;-56
2023/11/06 03:01:44;;;;;;;0.77;0.45;;;20.20;46.80;;;;;;5078407;28;20039;-58
2023/11/06 03:04:12;;;;;;;1.00;0.65;;;20.20;46.80;;;;;;5063682;28;20024;-57
2023/11/06 03:06:40;;;;;;;0.63;0.40;;;20.20;46.80;;;;;;5060326;28;20029;-58
2023/11/06 03:09:09;;;;;;;0.93;0.43;;;20.20;46.80;;;;;;5060117;28;20105;-56
2023/11/06 03:11:38;;;;;;;0.88;0.30;;;20.20;46.90;;;;;;5075202;28;20031;-57
2023/11/06 03:14:05;;;;;;;1.10;0.40;;;20.20;46.90;;;;;;5059621;28;20029;-56
2023/11/06 03:16:34;;;;;;;1.50;0.40;;;20.20;46.90;;;;;;5056050;28;20178;-58
2023/11/06 03:19:01;;;;;;;0.55;0.22;;;20.20;46.90;;;;;;5071148;28;20037;-58
2023/11/06 03:21:27;;;;;;;1.20;0.30;;;20.20;46.90;;;;;;5083184;28;20028;-56
2023/11/06 03:23:52;;;;;;;1.20;0.40;;;20.20;46.90;;;;;;5066626;28;20040;-56
2023/11/06 03:26:18;;;;;;;0.88;0.32;;;20.10;46.90;;;;;;5055768;28;20166;-58
2023/11/06 03:28:44;;;;;;;1.25;0.40;;;20.10;46.90;;;;;;5070493;28;20463;-56
2023/11/06 03:31:10;;;;;;;1.20;0.43;;;20.10;46.90;;;;;;5068694;28;20024;-58
2023/11/06 03:33:36;;;;;;;1.23;0.43;;;20.10;46.90;;;;;;5070241;28;20039;-57
2023/11/06 03:36:05;;;;;;;1.23;0.50;;;20.10;46.90;;;;;;5050330;28;20044;-54
2023/11/06 03:38:31;;;;;;;1.23;0.32;;;20.10;46.90;;;;;;5077122;28;20125;-56
2023/11/06 03:40:59;;;;;;;1.13;0.60;;;20.10;46.90;;;;;;5047050;28;20044;-57
2023/11/06 03:43:27;;;;;;;0.73;0.35;;;20.10;47.00;;;;;;5050398;28;20111;-57
2023/11/06 03:45:53;;;;;;;1.02;0.50;;;20.10;47.00;;;;;;5052920;28;20344;-59
2023/11/06 03:48:19;;;;;;;0.95;0.30;;;20.10;47.00;;;;;;5063177;28;20052;-57
2023/11/06 03:50:45;;;;;;;0.88;0.40;;;20.10;47.00;;;;;;5069956;28;20431;-56
2023/11/06 03:53:15;;;;;;;1.42;0.45;;;20.10;47.00;;;;;;5062809;28;20025;-58
2023/11/06 03:55:41;;;;;;;1.30;0.50;;;20.10;47.00;;;;;;5068151;28;20419;-57
2023/11/06 03:58:07;;;;;;;1.27;0.60;;;20.10;47.00;;;;;;5066481;28;20052;-57
2023/11/06 04:00:34;;;;;;;1.00;0.43;;;20.10;47.00;;;;;;5065359;28;20059;-55
2023/11/06 04:03:00;;;;;;;0.88;0.35;;;20.10;47.00;;;;;;5069097;28;20033;-57
2023/11/06 04:05:26;;;;;;;1.67;0.40;;;20.10;47.00;;;;;;5061659;28;20025;-56
2023/11/06 04:07:52;;;;;;;0.70;0.47;;;20.10;47.00;;;;;;5071388;28;20065;-57
2023/11/06 04:10:17;;;;;;;0.88;0.40;;;20.10;47.00;;;;;;5054266;28;20067;-56
2023/11/06 04:12:44;;;;;;;1.63;0.40;;;20.10;47.00;;;;;;5065359;28;20440;-56
2023/11/06 04:15:10;;;;;;;1.05;0.40;;;20.10;47.00;;;;;;5065850;28;20360;-58
2023/11/06 04:17:38;;;;;;;0.73;0.35;;;20.00;47.00;;;;;;5070966;28;20360;-57
2023/11/06 04:20:06;;;;;;;1.00;0.40;;;20.10;47.00;;;;;;5068956;28;20086;-57
2023/11/06 04:22:34;;;;;;;0.80;0.38;;;20.00;47.00;;;;;;5061491;28;20031;-58
2023/11/06 04:25:00;;;;;;;1.08;0.40;;;20.00;47.00;;;;;;5059560;28;20021;-57
2023/11/06 04:27:26;;;;;;;0.90;0.43;;;20.00;47.00;;;;;;5066317;28;20041;-56
2023/11/06 04:29:52;;;;;;;0.32;0.20;;;20.00;47.00;;;;;;5070868;28;20021;-58
2023/11/06 04:32:18;;;;;;;1.60;0.55;;;20.00;47.00;;;;;;5066352;28;20116;-56
2023/11/06 04:34:44;;;;;;;1.42;0.47;;;20.00;47.00;;;;;;5068136;28;20051;-57
2023/11/06 04:37:12;;;;;;;0.75;0.30;;;20.00;47.00;;;;;;5063965;28;20043;-54
2023/11/06 04:39:43;;;;;;;1.15;0.40;;;20.00;46.90;;;;;;5074394;28;20036;-58
2023/11/06 04:42:09;;;;;;;0.70;0.32;;;20.00;46.90;;;;;;5062002;28;20036;-57
2023/11/06 04:44:38;;;;;;;0.93;0.38;;;20.00;47.00;;;;;;5065593;28;20505;-57
2023/11/06 04:47:04;;;;;;;0.50;0.30;;;20.00;47.00;;;;;;5066014;28;20044;-58
2023/11/06 04:49:30;;;;;;;1.05;0.40;;;20.00;46.90;;;;;;5065118;28;20451;-57
2023/11/06 04:51:57;;;;;;;2.00;0.40;;;20.00;46.90;;;;;;5068858;28;20124;-57
2023/11/06 04:54:23;;;;;;;0.95;0.40;;;20.00;46.90;;;;;;5068909;28;20069;-58
2023/11/06 04:56:49;;;;;;;0.55;0.20;;;20.00;46.90;;;;;;5075738;28;20036;-59
2023/11/06 04:59:15;;;;;;;1.02;0.30;;;20.00;46.90;;;;;;5071562;28;20111;-58
2023/11/06 05:01:41;;;;;;;1.58;0.45;;;20.00;46.90;;;;;;5069097;28;20237;-58
2023/11/06 05:04:07;;;;;;;1.08;0.55;;;20.00;46.90;;;;;;5062868;28;20028;-57
2023/11/06 05:06:33;;;;;;;0.52;0.30;;;20.00;46.90;;;;;;5069727;28;20048;-56
2023/11/06 05:09:00;;;;;;;0.85;0.25;;;20.00;46.90;;;;;;5071913;28;20068;-57
2023/11/06 05:11:27;;;;;;;1.38;0.40;;;20.00;46.90;;;;;;5072395;28;20032;-56
2023/11/06 05:13:54;;;;;;;0.63;0.40;;;20.00;46.90;;;;;;5065362;28;20025;-58
2023/11/06 05:16:20;;;;;;;0.70;0.30;;;20.00;46.90;;;;;;5068197;28;20043;-56
2023/11/06 05:18:46;;;;;;;0.93;0.30;;;19.90;46.80;;;;;;5065394;28;20043;-57
2023/11/06 05:21:21;;;;;;;0.85;0.30;;;19.90;46.80;;;;;;5073474;28;20024;-58
2023/11/06 05:23:47;;;;;;;0.73;0.30;;;19.90;46.80;;;;;;5065944;28;20040;-58
2023/11/06 05:26:13;;;;;;;0.75;0.30;;;19.90;46.80;;;;;;5068185;28;20028;-58
2023/11/06 05:28:38;;;;;;;1.02;0.35;;;19.90;46.80;;;;;;5063179;28;20040;-57
2023/11/06 05:31:04;;;;;;;0.95;0.35;;;19.90;46.80;;;;;;5066278;28;20043;-57
2023/11/06 05:33:30;;;;;;;0.63;0.20;;;19.90;46.80;;;;;;5063523;28;20087;-57
2023/11/06 05:35:56;;;;;;;0.63;0.40;;;19.90;46.80;;;;;;5067267;28;20044;-57
2023/11/06 05:38:22;;;;;;;0.73;0.50;;;19.90;46.80;;;;;;5061936;28;20447;-58
2023/11/06 05:40:48;;;;;;;1.67;0.47;;;19.90;46.70;;;;;;5068732;28;20062;-58
2023/11/06 05:43:13;;;;;;;0.47;0.40;;;19.90;46.70;;;;;;5048064;28;20036;-58
2023/11/06 05:45:39;;;;;;;1.25;0.35;;;19.90;46.60;;;;;;5068015;28;20074;-57
2023/11/06 05:48:05;;;;;;;1.15;0.52;;;19.90;46.60;;;;;;5066844;28;20474;-58
2023/11/06 05:50:31;;;;;;;1.52;0.30;;;19.90;46.50;;;;;;5072386;28;20024;-57
2023/11/06 05:52:57;;;;;;;0.30;0.20;;;19.90;46.50;;;;;;5068900;28;20048;-59
2023/11/06 05:55:22;;;;;;;0.85;0.38;;;19.90;46.40;;;;;;5069213;28;20442;-54
2023/11/06 05:57:48;;;;;;;0.68;0.30;;;19.90;46.40;;;;;;5070427;28;20029;-57
2023/11/06 06:00:15;;;;;;;1.15;0.50;;;19.90;46.30;;;;;;5074378;28;20046;-57
2023/11/06 06:02:41;;;;;;;0.80;0.30;;;19.90;46.30;;;;;;5074724;28;20024;-58
2023/11/06 06:05:07;;;;;;;0.57;0.40;;;20.00;46.30;;;;;;5064410;28;20515;-60
2023/11/06 06:07:33;;;;;;;0.70;0.38;;;20.00;46.30;;;;;;5067498;28;20082;-58
2023/11/06 06:09:59;;;;;;;0.55;0.28;;;19.90;46.20;;;;;;5066955;28;20048;-58
2023/11/06 06:12:26;;;;;;;1.10;0.45;;;20.00;46.20;;;;;;5069555;28;20324;-56
2023/11/06 06:14:55;;;;;;;0.52;0.35;;;20.00;46.20;;;;;;5076657;28;20103;-58
2023/11/06 06:17:21;;;;;;;1.20;0.20;;;20.00;46.10;;;;;;5069736;28;20038;-56
2023/11/06 06:19:47;;;;;;;0.60;0.20;;;20.00;46.10;;;;;;5059087;28;20111;-58
2023/11/06 06:22:13;;;;;;;1.15;0.45;;;20.00;46.10;;;;;;5078872;28;20374;-57
2023/11/06 06:24:39;;;;;;;0.55;0.20;;;20.00;46.10;;;;;;5074387;28;20534;-56
2023/11/06 06:27:05;;;;;;;1.27;0.80;;;20.00;46.10;;;;;;5079640;28;20447;-58
2023/11/06 06:29:31;;;;;;;0.85;0.40;;;20.00;46.00;;;;;;5081856;28;20036;-58
2023/11/06 06:31:57;;;;;;;0.95;0.40;;;20.00;46.00;;;;;;5083563;28;20024;-58
2023/11/06 06:34:23;;;;;;;1.33;0.40;;;20.00;46.00;;;;;;5083967;28;20144;-60
2023/11/06 06:36:49;;;;;;;2.35;0.38;;;20.00;46.00;;;;;;5085905;28;20027;-58
2023/11/06 06:39:15;;;;;;;1.15;0.30;;;20.00;45.90;;;;;;5083577;28;20031;-58
2023/11/06 06:41:41;;;;;;;0.93;0.30;;;20.00;45.90;;;;;;5066683;28;20020;-58
2023/11/06 06:44:07;;;;;;;0.95;0.30;;;20.00;46.00;;;;;;5082581;28;20089;-56
2023/11/06 06:46:33;;;;;;;0.80;0.30;;;20.00;45.90;;;;;;5083226;28;20028;-56
2023/11/06 06:48:59;;;;;;;0.47;0.30;;;20.00;45.90;;;;;;5081206;28;20042;-58
2023/11/06 06:51:25;;;;;;;1.17;0.40;;;20.00;45.90;;;;;;5085006;28;20051;-58
2023/11/06 06:53:51;;;;;;;1.75;0.52;;;20.00;45.90;;;;;;5084216;28;20024;-59
2023/11/06 06:56:17;;;;;;;0.98;0.32;;;20.00;45.90;;;;;;5084511;28;20336;-58
2023/11/06 06:58:43;;;;;;;1.23;0.52;;;20.00;45.90;;;;;;5079771;28;20024;-59
2023/11/06 07:01:09;;;;;;;1.70;0.50;;;20.00;45.90;;;;;;5086018;28;20461;-57
2023/11/06 07:03:37;;;;;;;1.40;0.43;;;20.00;45.90;;;;;;5083530;28;20081;-57
2023/11/06 07:06:11;;;;;;;1.40;0.52;;;20.00;45.90;;;;;;5074531;28;20064;-56
2023/11/06 07:08:37;;;;;;;1.35;0.40;;;20.00;45.80;;;;;;5075960;28;20454;-58
2023/11/06 07:11:03;;;;;;;1.85;0.75;;;20.00;45.80;;;;;;5063926;28;20125;-57
2023/11/06 07:13:29;;;;;;;1.42;0.50;;;20.00;45.80;;;;;;5082116;28;20076;-56
2023/11/06 07:15:55;;;;;;;2.55;0.77;;;20.00;45.80;;;;;;5080624;28;20386;-58
2023/11/06 07:18:22;;;;;;;1.13;0.50;;;20.00;45.80;;;;;;5058046;28;20106;-57
2023/11/06 07:20:49;;;;;;;1.45;0.50;;;20.00;45.80;;;;;;5079213;28;20047;-59
2023/11/06 07:23:14;;;;;;;0.98;0.40;;;20.00;45.80;;;;;;5074980;28;20048;-58
2023/11/06 07:25:40;;;;;;;1.02;0.43;;;20.00;45.80;;;;;;5075516;28;20067;-56
2023/11/06 07:28:06;;;;;;;1.60;0.55;;;20.10;45.80;;;;;;5076822;28;20415;-56
2023/11/06 07:30:32;;;;;;;1.25;0.40;;;20.00;45.70;;;;;;5077816;28;20037;-60
2023/11/06 07:32:58;;;;;;;1.55;0.50;;;20.00;45.70;;;;;;5083690;28;20032;-56
2023/11/06 07:35:25;;;;;;;2.13;0.80;;;20.00;45.70;;;;;;5061466;28;20486;-56
2023/11/06 07:37:51;;;;;;;1.73;0.50;;;20.00;45.80;;;;;;5059735;28;20051;-58
2023/11/06 07:40:17;;;;;;;1.92;0.70;;;20.00;45.70;;;;;;5061396;28;20492;-60
2023/11/06 07:42:43;;;;;;;3.78;0.82;;;20.00;45.80;;;;;;5070823;28;20056;-56
2023/11/06 07:45:09;;;;;;;2.13;0.70;;;20.00;45.70;;;;;;5068738;28;20052;-56
2023/11/06 07:47:39;;;;;;;2.80;0.70;;;20.10;45.80;;;;;;5081046;28;20041;-59
2023/11/06 07:50:05;;;;;;;2.50;0.70;;;20.10;45.80;;;;;;5073018;28;20024;-56
2023/11/06 07:52:31;;;;;;;2.17;0.60;;;20.00;45.70;;;;;;5073270;28;20028;-56
2023/11/06 07:54:58;;;;;;;1.65;0.65;;;20.10;45.80;;;;;;5073594;28;20036;-58
2023/11/06 07:57:24;;;;;;;1.58;0.68;;;20.10;45.80;;;;;;5075054;28;20171;-61
2023/11/06 07:59:51;;;;;;;2.17;0.85;;;20.10;45.80;;;;;;5073677;28;20060;-58
2023/11/06 08:02:17;;;;;;;3.40;0.60;;;20.10;45.70;;;;;;5077245;28;20039;-58
2023/11/06 08:04:43;;;;;;;2.08;0.75;;;20.10;45.60;;;;;;5073831;28;20020;-58
2023/11/06 08:07:11;;;;;;;1.88;0.73;;;20.10;45.60;;;;;;5072870;28;21108;-57
2023/11/06 08:09:37;;;;;;;1.85;0.60;;;20.10;45.60;;;;;;5072130;28;20463;-57
2023/11/06 08:12:06;;;;;;;2.25;0.77;;;20.10;45.60;;;;;;5078006;28;20059;-57
2023/11/06 08:14:35;;;;;;;1.80;0.63;;;20.10;45.50;;;;;;5079124;28;21616;-60
2023/11/06 08:17:01;;;;;;;1.38;0.63;;;20.10;45.50;;;;;;5074737;28;20024;-59
2023/11/06 08:19:27;;;;;;;1.38;0.43;;;20.10;45.50;;;;;;5072025;28;20028;-58
2023/11/06 08:21:52;;;;;;;3.33;0.80;;;20.10;45.50;;;;;;5073282;28;20038;-59
2023/11/06 08:24:19;;;;;;;1.83;0.73;;;20.10;45.50;;;;;;5080932;28;20347;-57
2023/11/06 08:26:45;;;;;;;2.20;0.90;;;20.20;45.50;;;;;;5081482;28;20055;-57
2023/11/06 08:29:11;;;;;;;2.35;0.95;;;20.10;45.50;;;;;;5080103;28;20560;-57
2023/11/06 08:31:37;;;;;;;3.78;1.08;;;20.20;45.50;;;;;;5077661;28;20359;-59
2023/11/06 08:34:03;;;;;;;1.80;0.73;;;20.20;45.50;;;;;;5055913;28;20379;-57
2023/11/06 08:36:29;;;;;;;2.83;0.73;;;20.20;45.40;;;;;;5081038;28;20393;-58
2023/11/06 08:38:57;;;;;;;3.45;0.90;;;20.20;45.40;;;;;;5077089;28;20031;-56
2023/11/06 08:41:24;;;;;;;3.65;1.05;;;20.20;45.40;;;;;;5078338;28;20043;-58
2023/11/06 08:43:50;;;;;;;2.22;0.68;;;20.20;45.30;;;;;;5076507;28;20033;-58
2023/11/06 08:46:16;;;;;;;3.17;0.70;;;20.20;45.30;;;;;;5079165;28;20047;-59
2023/11/06 08:48:42;;;;;;;2.42;0.65;;;20.20;45.20;;;;;;5077625;28;20036;-58
2023/11/06 08:51:08;;;;;;;1.50;0.70;;;20.20;45.20;;;;;;5083328;28;20708;-60
2023/11/06 08:53:35;;;;;;;2.95;0.93;;;20.20;45.10;;;;;;5078791;28;20024;-59
2023/11/06 08:56:01;;;;;;;2.45;0.93;;;20.20;45.10;;;;;;5067929;28;20511;-57
2023/11/06 08:58:27;;;;;;;2.63;1.02;;;20.20;45.10;;;;;;5076196;28;20099;-57
2023/11/06 09:00:53;;;;;;;4.22;0.73;;;20.30;45.10;;;;;;5073647;28;20086;-59
2023/11/06 09:03:19;;;;;;;4.57;1.10;;;20.30;45.10;;;;;;5073721;28;20024;-55
2023/11/06 09:05:45;;;;;;;1.95;0.60;;;20.30;45.00;;;;;;5052291;28;20432;-58
2023/11/06 09:08:11;;;;;;;3.40;0.80;;;20.30;45.00;;;;;;5071783;28;20036;-59
2023/11/06 09:10:37;;;;;;;1.45;0.65;;;20.30;45.00;;;;;;5076565;28;20032;-57
2023/11/06 09:13:03;;;;;;;1.80;0.77;;;20.30;45.00;;;;;;5072164;28;20058;-57
2023/11/06 09:15:29;;;;;;;2.70;0.82;;;20.30;45.60;;;;;;5073821;28;20161;-56
2023/11/06 09:17:55;;;;;;;3.20;1.05;;;20.30;45.00;;;;;;5072555;28;20021;-56
2023/11/06 09:20:21;;;;;;;2.22;1.15;;;20.30;44.90;;;;;;5077417;28;20122;-58
2023/11/06 09:22:46;;;;;;;1.80;0.68;;;20.30;44.90;;;;;;5077275;28;20036;-58
2023/11/06 09:25:13;;;;;;;2.65;0.95;;;20.30;44.90;;;;;;5078779;28;20036;-58
2023/11/06 09:27:41;;;;;;;2.10;0.80;;;20.30;45.10;;;;;;5079279;28;20040;-58
2023/11/06 09:30:09;;;;;;;1.92;0.68;;;20.30;45.50;;;;;;5079477;28;20451;-56
2023/11/06 09:32:35;;;;;;;1.95;0.70;;;20.40;44.90;;;;;;5066612;28;20427;-58
2023/11/06 09:35:03;;;;;;;2.38;0.95;;;20.30;44.80;;;;;;5086965;28;20109;-58
2023/11/06 09:37:30;;;;;;;2.90;0.85;;;20.30;44.80;;;;;;5089157;28;20039;-60
2023/11/06 09:39:56;;;;;;;2.50;0.90;;;20.30;44.80;;;;;;5085856;28;20160;-55
2023/11/06 09:42:22;;;;;;;3.08;1.02;;;20.40;44.90;;;;;;5089728;28;20447;-58
2023/11/06 09:44:49;;;;;;;1.73;0.70;;;20.40;44.80;;;;;;5071101;28;20462;-58
2023/11/06 09:47:15;;;;;;;3.13;0.90;;;20.40;44.80;;;;;;5071026;28;20028;-60
2023/11/06 09:50:04;;;;;;;1.98;0.80;;;20.40;44.70;;;;;;5083657;28;20021;-55
2023/11/06 09:52:32;;;;;;;1.30;0.70;;;20.40;44.70;;;;;;5088987;28;20038;-56
2023/11/06 09:54:59;;;;;;;3.63;1.08;;;20.40;44.70;;;;;;5070830;28;20028;-59
2023/11/06 09:57:26;;;;;;;2.05;0.88;;;20.40;44.70;;;;;;5083452;28;20060;-57
2023/11/06 09:59:52;;;;;;;3.72;0.90;;;20.40;44.60;;;;;;5088638;28;20031;-57
2023/11/06 10:02:27;;;;;;;2.10;0.80;;;20.40;44.60;;;;;;5086529;28;20074;-59
2023/11/06 10:04:54;;;;;;;2.85;0.80;;;20.40;44.50;;;;;;5084937;28;20455;-57
2023/11/06 10:07:45;;;;;;;2.25;0.70;;;20.50;44.60;;;;;;5078914;28;20414;-56
2023/11/06 10:10:18;;;;;;;2.63;0.90;;;20.40;44.40;;;;;;5086469;28;20028;-55
2023/11/06 10:12:44;;;;;;;1.88;0.80;;;20.50;44.50;;;;;;5072107;28;20028;-59
2023/11/06 10:15:13;;;;;;;2.42;0.82;;;20.40;44.40;;;;;;5088777;28;20024;-56
2023/11/06 10:17:40;;;;;;;3.08;0.80;;;20.50;44.40;;;;;;5080898;28;20020;-55
2023/11/06 10:20:16;;;;;;;3.17;0.82;;;20.50;44.40;;;;;;5085638;28;20351;-59
2023/11/06 10:22:56;;;;;;;3.08;0.82;;;20.50;44.40;;;;;;5085595;28;20039;-57
2023/11/06 10:25:27;;;;;;;3.35;0.90;;;20.50;44.30;;;;;;5082548;28;20103;-57
2023/11/06 10:27:56;;;;;;;2.05;0.93;;;20.50;44.30;;;;;;5087181;28;20036;-59
2023/11/06 10:30:23;;;;;;;3.90;1.10;;;20.50;44.30;;;;;;5082819;28;20037;-59
2023/11/06 10:32:49;;;;;;;1.70;0.70;;;20.50;44.20;;;;;;5085182;28;20051;-57
2023/11/06 10:35:17;;;;;;;3.03;1.00;;;20.50;44.20;;;;;;5089455;28;20763;-56
2023/11/06 10:37:47;;;;;;;2.22;0.80;;;20.50;44.30;;;;;;5065667;28;20115;-57
2023/11/06 10:40:18;;;;;;;2.35;0.70;;;20.50;44.10;;;;;;5089863;28;20038;-57
2023/11/06 10:42:50;;;;;;;3.08;1.02;;;20.50;44.10;;;;;;5088955;28;20024;-58
2023/11/06 10:45:17;;;;;;;4.10;1.10;;;20.50;44.00;;;;;;5093396;28;20454;-58
2023/11/06 10:47:49;;;;;;;1.55;0.60;;;20.50;44.00;;;;;;5088619;28;20044;-59
2023/11/06 10:50:23;;;;;;;1.15;0.40;;;20.50;44.00;;;;;;5073972;28;20450;-58
2023/11/06 10:52:54;;;;;;;3.97;0.93;;;20.50;44.00;;;;;;5092081;28;20109;-56
2023/11/06 10:55:23;;;;;;;2.17;0.80;;;20.50;44.00;;;;;;5087566;28;20031;-53
2023/11/06 10:57:58;;;;;;;1.98;0.98;;;20.60;44.00;;;;;;5088199;28;20024;-58
2023/11/06 11:00:24;;;;;;;1.60;0.70;;;20.60;43.90;;;;;;5088763;28;20439;-58
2023/11/06 11:02:54;;;;;;;1.75;0.60;;;20.60;44.00;;;;;;5087484;28;20035;-56
2023/11/06 11:05:24;;;;;;;1.90;0.80;;;20.60;43.90;;;;;;5086906;28;20104;-59
2023/11/06 11:07:52;;;;;;;2.05;0.70;;;20.60;43.90;;;;;;5083730;28;20040;-56
2023/11/06 11:10:21;;;;;;;2.88;0.85;;;20.60;43.90;;;;;;5087404;28;20027;-56
2023/11/06 11:12:52;;;;;;;1.45;0.70;;;20.60;43.80;;;;;;5057045;28;20111;-58
2023/11/06 11:15:24;;;;;;;1.52;0.52;;;20.60;43.80;;;;;;5090267;28;20031;-56
2023/11/06 11:18:09;;;;;;;1.77;0.77;;;20.60;43.70;;;;;;5081360;28;20036;-56
2023/11/06 11:20:50;;;;;;;2.05;0.80;;;20.60;43.70;;;;;;5089564;28;20055;-56
2023/11/06 11:23:16;;;;;;;2.83;0.80;;;20.60;43.70;;;;;;5090604;28;20081;-57
2023/11/06 11:26:02;;;;;;;2.33;0.70;;;20.60;43.70;;;;;;5089322;28;20051;-56
2023/11/06 11:28:27;;;;;;;1.50;0.60;;;20.60;43.60;;;;;;5082790;28;20032;-57
2023/11/06 11:30:54;;;;;;;2.42;0.75;;;20.60;43.60;;;;;;5070961;28;20094;-54
2023/11/06 11:33:54;;;;;;;2.15;0.70;;;20.60;43.60;;;;;;5089050;28;20067;-55
2023/11/06 11:36:46;;;;;;;1.48;0.57;;;20.60;43.50;;;;;;5090460;28;20117;-59
2023/11/06 11:39:17;;;;;;;1.95;0.68;;;20.60;43.60;;;;;;5077289;28;20040;-57
2023/11/06 11:42:03;;;;;;;1.90;0.80;;;20.60;43.60;;;;;;5090874;28;20443;-56
2023/11/06 11:44:30;;;;;;;2.40;0.88;;;20.60;44.20;;;;;;5080315;28;20024;-58
2023/11/06 11:47:00;;;;;;;2.13;0.70;;;20.60;43.60;;;;;;5085632;28;20024;-58
2023/11/06 11:49:47;;;;;;;2.20;0.68;;;20.60;43.60;;;;;;5080646;28;20047;-56
2023/11/06 11:52:16;;;;;;;2.22;0.82;;;20.60;43.60;;;;;;5084643;28;20032;-56
2023/11/06 11:54:42;;;;;;;2.72;0.65;;;20.60;43.60;;;;;;5077318;28;20033;-57
2023/11/06 11:57:09;;;;;;;2.47;0.70;;;20.60;43.60;;;;;;5077056;28;20154;-57
2023/11/06 11:59:41;;;;;;;2.97;1.00;;;20.60;43.60;;;;;;5079269;28;20047;-59
2023/11/06 12:02:31;;;;;;;2.13;0.80;;;20.60;43.60;;;;;;5069741;28;20127;-60
2023/11/06 12:04:59;;;;;;;2.20;0.82;;;20.60;43.60;;;;;;5079678;28;20028;-56
2023/11/06 12:07:28;;;;;;;1.60;0.80;;;20.60;43.60;;;;;;5080457;28;20035;-60
2023/11/06 12:09:55;;;;;;;2.00;0.80;;;20.60;43.60;;;;;;5076363;28;20021;-59
2023/11/06 12:12:29;;;;;;;2.05;0.88;;;20.60;43.60;;;;;;5091458;28;20070;-56
2023/11/06 12:14:56;;;;;;;1.15;0.57;;;20.60;43.60;;;;;;5093561;28;20378;-58
2023/11/06 12:17:26;;;;;;;3.00;0.70;;;20.60;43.60;;;;;;5081277;28;20467;-58
2023/11/06 12:19:54;;;;;;;2.70;0.90;;;20.60;43.60;;;;;;5072534;28;20490;-56
2023/11/06 12:22:20;;;;;;;2.38;0.80;;;20.60;43.60;;;;;;5073690;28;20032;-58
2023/11/06 12:24:50;;;;;;;1.60;0.68;;;20.60;43.60;;;;;;5072498;28;21713;-60
2023/11/06 12:27:18;;;;;;;1.60;0.60;;;20.60;43.70;;;;;;5075061;28;20549;-58
2023/11/06 12:29:44;;;;;;;2.10;0.63;;;20.60;43.70;;;;;;5077209;28;20140;-59
2023/11/06 12:32:23;;;;;;;1.30;0.80;;;20.60;43.70;;;;;;5078773;28;20033;-58
2023/11/06 12:35:14;;;;;;;1.70;0.80;;;20.60;43.70;;;;;;5078402;28;20048;-59
2023/11/06 12:37:49;;;;;;;1.52;0.70;;;20.60;43.70;;;;;;5078357;28;20106;-58
2023/11/06 12:40:26;;;;;;;1.50;0.60;;;20.60;43.70;;;;;;5077014;28;20020;-58
2023/11/06 12:42:53;;;;;;;1.27;0.52;;;20.60;43.70;;;;;;5074384;28;20043;-53
2023/11/06 12:45:39;;;;;;;2.20;0.70;;;20.60;43.70;;;;;;5075599;28;20472;-59
2023/11/06 12:48:23;;;;;;;1.02;0.40;;;20.60;43.60;;;;;;5069500;28;20050;-58
2023/11/06 12:51:00;;;;;;;1.88;0.60;;;20.60;43.80;;;;;;5064185;28;20603;-57